createdAt,value
2022-11-23T00:03:14.637Z,16.00
2022-11-23T00:08:16.602Z,16.00
2022-11-23T00:13:18.627Z,16.00
2022-11-23T00:18:20.484Z,16.00
2022-11-23T00:23:22.130Z,15.90
2022-11-23T00:28:23.683Z,15.90
2022-11-23T00:33:25.367Z,15.90
2022-11-23T00:38:27.436Z,15.80
2022-11-23T00:43:29.350Z,15.80
2022-11-23T00:48:31.272Z,15.80
2022-11-23T00:53:33.254Z,15.80
2022-11-23T00:58:35.250Z,15.80
2022-11-23T01:03:37.980Z,15.70
2022-11-23T01:08:39.994Z,15.80
2022-11-23T01:13:42.196Z,15.90
2022-11-23T01:18:43.898Z,16.00
2022-11-23T01:23:45.809Z,16.00
2022-11-23T01:28:47.828Z,16.00
2022-11-23T01:33:54.215Z,16.00
2022-11-23T01:38:56.049Z,15.90
2022-11-23T01:43:57.714Z,15.90
2022-11-23T01:49:03.986Z,15.80
2022-11-23T01:54:09.555Z,15.80
2022-11-23T01:59:14.085Z,15.80
2022-11-23T02:04:19.397Z,15.80
2022-11-23T02:09:21.742Z,15.70
2022-11-23T02:14:23.735Z,15.70
2022-11-23T02:19:34.463Z,15.70
2022-11-23T02:24:39.519Z,15.70
2022-11-23T02:29:41.210Z,15.80
2022-11-23T02:34:42.741Z,15.90
2022-11-23T02:39:46.107Z,15.90
2022-11-23T02:45:06.250Z,15.90
2022-11-23T02:50:08.049Z,15.90
2022-11-23T02:55:09.604Z,15.80
2022-11-23T03:00:11.627Z,15.80
2022-11-23T03:05:13.398Z,15.80
2022-11-23T03:10:15.105Z,15.70
2022-11-23T03:15:16.754Z,15.70
2022-11-23T03:20:18.959Z,15.70
2022-11-23T03:25:20.565Z,15.70
2022-11-23T03:30:22.174Z,15.60
2022-11-23T03:35:23.858Z,15.60
2022-11-23T03:40:25.650Z,15.70
2022-11-23T03:45:27.502Z,15.70
2022-11-23T03:50:29.784Z,15.80
2022-11-23T03:55:31.794Z,15.80
2022-11-23T04:00:34.096Z,15.80
2022-11-23T04:05:35.890Z,15.80
2022-11-23T04:10:37.521Z,15.80
2022-11-23T04:15:39.162Z,15.80
2022-11-23T04:20:40.878Z,15.80
2022-11-23T04:25:43.106Z,15.90
2022-11-23T04:30:44.873Z,16.00
2022-11-23T04:35:46.593Z,16.00
2022-11-23T04:40:49.170Z,16.00
2022-11-23T04:45:50.846Z,15.90
2022-11-23T04:50:55.635Z,15.90
2022-11-23T04:55:57.859Z,15.90
2022-11-23T05:00:59.594Z,15.80
2022-11-23T05:06:04.719Z,15.80
2022-11-23T05:11:06.409Z,15.70
2022-11-23T05:16:08.309Z,15.70
2022-11-23T05:21:10.011Z,15.70
2022-11-23T05:26:11.624Z,15.60
2022-11-23T05:31:13.344Z,15.60
2022-11-23T05:36:15.121Z,15.60
2022-11-23T05:41:16.786Z,15.70
2022-11-23T05:46:19.115Z,15.80
2022-11-23T05:51:20.823Z,16.00
2022-11-23T05:56:22.636Z,16.30
2022-11-23T06:01:24.436Z,16.50
2022-11-23T06:06:26.672Z,16.60
2022-11-23T06:11:28.350Z,16.70
2022-11-23T06:16:30.065Z,16.60
2022-11-23T06:21:31.983Z,16.60
2022-11-23T06:26:33.639Z,16.50
2022-11-23T06:31:36.433Z,16.50
2022-11-23T06:36:38.050Z,16.40
2022-11-23T06:41:39.624Z,16.30
2022-11-23T06:46:41.161Z,16.30
2022-11-23T06:51:42.845Z,16.30
2022-11-23T06:56:44.549Z,16.30
2022-11-23T07:01:46.532Z,16.40
2022-11-23T07:06:48.711Z,16.60
2022-11-23T07:11:50.496Z,16.90
2022-11-23T07:16:52.144Z,17.00
2022-11-23T07:21:54.431Z,17.00
2022-11-23T07:26:56.083Z,17.00
2022-11-23T07:31:57.855Z,16.90
2022-11-23T07:37:02.113Z,16.80
2022-11-23T07:42:31.569Z,16.70
2022-11-23T07:47:25.733Z,16.70
2022-11-23T07:52:27.681Z,16.50
2022-11-23T07:57:29.372Z,16.50
2022-11-23T08:02:31.256Z,16.40
2022-11-23T08:07:33.083Z,16.30
2022-11-23T08:12:34.859Z,16.30
2022-11-23T08:17:36.666Z,16.20
2022-11-23T08:22:38.394Z,16.10
2022-11-23T08:27:40.109Z,16.10
2022-11-23T08:32:41.763Z,16.00
2022-11-23T08:37:43.598Z,16.00
2022-11-23T08:42:46.255Z,15.90
2022-11-23T08:47:48.056Z,15.90
2022-11-23T08:52:54.549Z,15.90
2022-11-23T08:57:57.480Z,15.80
2022-11-23T09:02:59.239Z,15.80
2022-11-23T09:08:01.035Z,15.80
2022-11-23T09:13:03.335Z,15.70
2022-11-23T09:18:04.966Z,15.80
2022-11-23T09:23:12.233Z,15.90
2022-11-23T09:28:22.699Z,16.00
2022-11-23T09:33:24.845Z,16.00
2022-11-23T09:38:51.568Z,16.00
2022-11-23T09:43:48.677Z,16.00
2022-11-23T09:49:10.607Z,15.90
2022-11-23T09:54:15.511Z,15.90
2022-11-23T09:59:25.601Z,15.90
2022-11-23T10:04:30.257Z,15.90
2022-11-23T10:09:47.485Z,15.80
2022-11-23T10:14:49.198Z,15.80
2022-11-23T10:20:29.682Z,15.80
2022-11-23T10:25:47.694Z,15.80
2022-11-23T10:30:53.756Z,15.80
2022-11-23T10:35:55.312Z,15.80
2022-11-23T10:41:00.016Z,16.00
2022-11-23T10:46:31.819Z,16.00
2022-11-23T10:51:33.729Z,16.10
2022-11-23T10:56:35.693Z,16.10
2022-11-23T11:01:37.442Z,16.00
2022-11-23T11:06:39.045Z,16.00
2022-11-23T11:11:45.570Z,16.00
2022-11-23T11:16:51.601Z,16.00
2022-11-23T11:21:53.248Z,15.90
2022-11-23T11:26:59.666Z,15.90
2022-11-23T11:32:10.138Z,15.90
2022-11-23T11:37:22.516Z,15.80
2022-11-23T11:42:30.646Z,15.80
2022-11-23T11:47:37.115Z,15.80
2022-11-23T11:52:40.222Z,15.80
2022-11-23T11:57:51.904Z,15.70
2022-11-23T12:02:59.815Z,15.70
2022-11-23T12:08:20.227Z,15.70
2022-11-23T12:13:29.830Z,15.70
2022-11-23T12:18:34.506Z,15.70
2022-11-23T12:24:02.573Z,15.70
2022-11-23T12:29:25.222Z,15.70
2022-11-23T12:34:38.108Z,15.70
2022-11-23T12:39:55.101Z,15.70
2022-11-23T12:45:04.012Z,15.70
2022-11-23T12:50:15.303Z,15.70
2022-11-23T12:55:33.783Z,15.70
2022-11-23T13:00:42.791Z,15.70
2022-11-23T13:06:00.237Z,15.70
2022-11-23T13:11:20.373Z,15.70
2022-11-23T13:16:22.303Z,15.70
2022-11-23T13:21:34.406Z,15.70
2022-11-23T13:26:35.957Z,15.70
2022-11-23T13:31:38.178Z,15.70
2022-11-23T13:37:11.030Z,15.70
2022-11-23T13:42:05.550Z,15.60
2022-11-23T13:47:18.008Z,15.60
2022-11-23T13:52:22.757Z,15.60
2022-11-23T13:57:24.527Z,15.70
2022-11-23T14:02:28.241Z,15.80
2022-11-23T14:07:35.407Z,15.80
2022-11-23T14:12:56.890Z,15.80
2022-11-23T14:18:11.000Z,15.80
2022-11-23T14:23:15.822Z,15.80
2022-11-23T14:28:36.408Z,15.80
2022-11-23T14:33:46.173Z,15.80
2022-11-23T14:38:56.667Z,15.90
2022-11-23T14:44:00.452Z,15.90
2022-11-23T14:49:07.036Z,16.00
2022-11-23T14:54:10.136Z,16.00
2022-11-23T14:59:17.741Z,15.90
2022-11-23T15:04:34.724Z,15.90
2022-11-23T15:09:44.667Z,15.90
2022-11-23T15:14:46.269Z,15.80
2022-11-23T15:20:01.060Z,15.80
2022-11-23T15:25:08.080Z,15.80
2022-11-23T15:30:18.930Z,15.70
2022-11-23T15:35:21.243Z,15.70
2022-11-23T15:40:23.816Z,15.70
2022-11-23T15:45:35.321Z,15.60
2022-11-23T15:50:45.608Z,15.60
2022-11-23T15:55:47.661Z,15.70
2022-11-23T16:00:54.848Z,15.80
2022-11-23T16:06:28.664Z,15.90
2022-11-23T16:11:34.462Z,15.90
2022-11-23T16:16:37.586Z,16.00
2022-11-23T16:21:44.531Z,16.30
2022-11-23T16:26:46.119Z,16.80
2022-11-23T16:31:55.292Z,17.20
2022-11-23T16:36:59.075Z,17.50
2022-11-23T16:42:00.732Z,17.80
2022-11-23T16:47:14.757Z,18.00
2022-11-23T16:52:16.650Z,18.30
2022-11-23T16:57:22.819Z,18.60
2022-11-23T17:07:26.642Z,18.80
2022-11-23T17:12:28.330Z,18.90
2022-11-23T17:17:30.488Z,18.90
2022-11-23T17:22:32.095Z,18.90
2022-11-23T17:27:35.241Z,19.00
2022-11-23T17:32:36.778Z,19.00
2022-11-23T17:37:38.788Z,19.00
2022-11-23T17:42:40.490Z,18.90
2022-11-23T17:47:43.283Z,18.80
2022-11-23T17:52:45.556Z,18.90
2022-11-23T17:57:47.138Z,18.90
2022-11-23T18:02:49.101Z,18.90
2022-11-23T18:07:50.880Z,18.80
2022-11-23T18:12:52.541Z,18.80
2022-11-23T18:17:54.095Z,18.80
2022-11-23T18:22:55.704Z,18.80
2022-11-23T18:27:57.570Z,19.00
2022-11-23T18:32:59.178Z,19.00
2022-11-23T18:38:00.890Z,18.90
2022-11-23T18:43:02.504Z,18.80
2022-11-23T18:48:05.069Z,18.80
2022-11-23T18:53:06.749Z,18.60
2022-11-23T18:58:08.364Z,18.50
2022-11-23T19:03:10.036Z,18.50
2022-11-23T19:08:11.642Z,18.50
2022-11-23T19:13:13.230Z,18.60
2022-11-23T19:18:14.864Z,18.80
2022-11-23T19:23:16.402Z,18.80
2022-11-23T19:28:18.271Z,18.80
2022-11-23T19:33:19.801Z,18.80
2022-11-23T19:38:21.437Z,18.70
2022-11-23T19:43:22.999Z,18.60
2022-11-23T19:48:24.786Z,18.40
2022-11-23T19:53:30.727Z,18.30
2022-11-23T19:58:33.040Z,18.20
2022-11-23T20:03:34.825Z,18.10
2022-11-23T20:08:38.972Z,18.20
2022-11-23T20:13:40.803Z,18.10
2022-11-23T20:18:43.088Z,18.10
2022-11-23T20:23:45.801Z,18.00
2022-11-23T20:28:50.732Z,18.00
2022-11-23T20:33:53.883Z,18.00
2022-11-23T20:38:55.596Z,18.00
2022-11-23T20:44:01.296Z,18.00
2022-11-23T20:49:03.446Z,17.90
2022-11-23T20:54:05.313Z,17.80
2022-11-23T20:59:06.982Z,17.80
2022-11-23T21:04:08.871Z,17.70
2022-11-23T21:09:12.458Z,17.60
2022-11-23T21:14:18.220Z,17.50
2022-11-23T21:19:21.124Z,17.50
2022-11-23T21:24:23.014Z,17.40
2022-11-23T21:29:24.651Z,17.30
2022-11-23T21:34:27.206Z,17.30
2022-11-23T21:39:30.919Z,17.20
2022-11-23T21:44:33.048Z,17.20
2022-11-23T21:49:34.827Z,17.10
2022-11-23T21:54:36.714Z,17.10
2022-11-23T21:59:38.692Z,17.00
2022-11-23T22:04:40.369Z,16.90
2022-11-23T22:09:42.140Z,16.90
2022-11-23T22:14:44.007Z,16.90
2022-11-23T22:19:45.797Z,16.80
2022-11-23T22:24:47.743Z,16.80
2022-11-23T22:29:50.073Z,16.70
2022-11-23T22:34:51.865Z,16.70
2022-11-23T22:39:53.666Z,16.70
2022-11-23T22:44:55.322Z,16.60
2022-11-23T22:49:57.100Z,16.60
2022-11-23T22:54:58.913Z,16.60
2022-11-23T23:00:00.756Z,16.60
2022-11-23T23:05:02.548Z,16.50
2022-11-23T23:10:04.334Z,16.50
2022-11-23T23:15:06.266Z,16.50
2022-11-23T23:20:08.260Z,16.50
2022-11-23T23:25:10.010Z,16.50
2022-11-23T23:30:11.802Z,16.40
2022-11-23T23:35:13.750Z,16.40
2022-11-23T23:40:15.673Z,16.40
2022-11-23T23:45:17.607Z,16.40
2022-11-23T23:50:19.328Z,16.30
2022-11-23T23:55:21.080Z,16.30
